sensor_id;sensor_type;location;lat;lon;timestamp;temperature;humidity
5419;DHT22;2732;52.092;11.556;2023-04-25T00:03:13;7.00;99.90
5419;DHT22;2732;52.092;11.556;2023-04-25T00:08:14;7.00;99.90
5419;DHT22;2732;52.092;11.556;2023-04-25T00:13:15;7.00;99.90
5419;DHT22;2732;52.092;11.556;2023-04-25T00:18:17;7.00;99.90
5419;DHT22;2732;52.092;11.556;2023-04-25T00:23:18;6.90;99.90
5419;DHT22;2732;52.092;11.556;2023-04-25T00:28:18;6.90;99.90
5419;DHT22;2732;52.092;11.556;2023-04-25T00:33:19;6.90;99.90
5419;DHT22;2732;52.092;11.556;2023-04-25T00:38:20;6.90;99.90
5419;DHT22;2732;52.092;11.556;2023-04-25T00:43:20;6.90;99.90
5419;DHT22;2732;52.092;11.556;2023-04-25T00:48:22;6.90;99.90
5419;DHT22;2732;52.092;11.556;2023-04-25T00:53:25;6.90;99.90
5419;DHT22;2732;52.092;11.556;2023-04-25T00:58:27;7.00;99.90
5419;DHT22;2732;52.092;11.556;2023-04-25T01:03:32;6.90;99.90
5419;DHT22;2732;52.092;11.556;2023-04-25T01:08:36;6.90;99.90
5419;DHT22;2732;52.092;11.556;2023-04-25T01:13:38;7.00;99.90
5419;DHT22;2732;52.092;11.556;2023-04-25T01:18:39;7.00;99.90
5419;DHT22;2732;52.092;11.556;2023-04-25T01:23:41;7.00;99.90
5419;DHT22;2732;52.092;11.556;2023-04-25T01:28:42;6.90;99.90
5419;DHT22;2732;52.092;11.556;2023-04-25T01:33:42;6.90;99.90
5419;DHT22;2732;52.092;11.556;2023-04-25T01:38:43;7.00;99.90
5419;DHT22;2732;52.092;11.556;2023-04-25T01:43:45;7.00;99.90
5419;DHT22;2732;52.092;11.556;2023-04-25T01:48:46;6.90;99.90
5419;DHT22;2732;52.092;11.556;2023-04-25T01:53:46;6.90;99.90
5419;DHT22;2732;52.092;11.556;2023-04-25T01:58:47;6.90;99.90
5419;DHT22;2732;52.092;11.556;2023-04-25T02:03:48;6.90;99.90
5419;DHT22;2732;52.092;11.556;2023-04-25T02:08:48;6.90;99.90
5419;DHT22;2732;52.092;11.556;2023-04-25T02:13:49;6.90;99.90
5419;DHT22;2732;52.092;11.556;2023-04-25T02:18:50;7.00;99.90
5419;DHT22;2732;52.092;11.556;2023-04-25T02:23:53;7.00;99.90
5419;DHT22;2732;52.092;11.556;2023-04-25T02:28:54;7.00;99.90
5419;DHT22;2732;52.092;11.556;2023-04-25T02:33:55;6.90;99.90
5419;DHT22;2732;52.092;11.556;2023-04-25T02:38:55;7.00;99.90
5419;DHT22;2732;52.092;11.556;2023-04-25T02:43:56;6.90;99.90
5419;DHT22;2732;52.092;11.556;2023-04-25T02:48:56;7.00;99.90
5419;DHT22;2732;52.092;11.556;2023-04-25T02:53:57;6.90;99.90
5419;DHT22;2732;52.092;11.556;2023-04-25T02:58:57;6.90;99.90
5419;DHT22;2732;52.092;11.556;2023-04-25T03:03:58;6.90;99.90
5419;DHT22;2732;52.092;11.556;2023-04-25T03:08:59;6.90;99.90
5419;DHT22;2732;52.092;11.556;2023-04-25T03:13:59;6.90;99.90
5419;DHT22;2732;52.092;11.556;2023-04-25T03:19:00;6.80;99.90
5419;DHT22;2732;52.092;11.556;2023-04-25T03:24:02;6.80;99.90
5419;DHT22;2732;52.092;11.556;2023-04-25T03:29:03;6.70;99.90
5419;DHT22;2732;52.092;11.556;2023-04-25T03:34:04;6.70;99.90
5419;DHT22;2732;52.092;11.556;2023-04-25T03:39:05;6.70;99.90
5419;DHT22;2732;52.092;11.556;2023-04-25T03:44:07;6.70;99.90
5419;DHT22;2732;52.092;11.556;2023-04-25T03:49:07;6.70;99.90
5419;DHT22;2732;52.092;11.556;2023-04-25T03:54:08;6.70;99.90
5419;DHT22;2732;52.092;11.556;2023-04-25T03:59:09;6.70;99.90
5419;DHT22;2732;52.092;11.556;2023-04-25T04:04:11;6.70;99.90
5419;DHT22;2732;52.092;11.556;2023-04-25T04:09:11;6.70;99.90
5419;DHT22;2732;52.092;11.556;2023-04-25T04:14:12;6.70;99.90
5419;DHT22;2732;52.092;11.556;2023-04-25T04:19:13;6.80;99.90
5419;DHT22;2732;52.092;11.556;2023-04-25T04:24:14;6.80;99.90
5419;DHT22;2732;52.092;11.556;2023-04-25T04:29:17;6.80;99.90
5419;DHT22;2732;52.092;11.556;2023-04-25T04:34:21;6.80;99.90
5419;DHT22;2732;52.092;11.556;2023-04-25T04:39:21;6.80;99.90
5419;DHT22;2732;52.092;11.556;2023-04-25T04:44:22;6.90;99.90
5419;DHT22;2732;52.092;11.556;2023-04-25T04:49:23;6.90;99.90
5419;DHT22;2732;52.092;11.556;2023-04-25T04:54:23;6.90;99.90
5419;DHT22;2732;52.092;11.556;2023-04-25T04:59:24;7.00;99.90
5419;DHT22;2732;52.092;11.556;2023-04-25T05:04:24;7.00;99.90
5419;DHT22;2732;52.092;11.556;2023-04-25T05:09:26;7.10;99.90
5419;DHT22;2732;52.092;11.556;2023-04-25T05:14:27;7.10;99.90
5419;DHT22;2732;52.092;11.556;2023-04-25T05:19:28;7.10;99.90
5419;DHT22;2732;52.092;11.556;2023-04-25T05:24:29;7.10;99.90
5419;DHT22;2732;52.092;11.556;2023-04-25T05:29:31;7.20;99.90
5419;DHT22;2732;52.092;11.556;2023-04-25T05:34:31;7.20;99.90
5419;DHT22;2732;52.092;11.556;2023-04-25T05:39:32;7.20;99.90
5419;DHT22;2732;52.092;11.556;2023-04-25T05:44:32;7.30;99.90
5419;DHT22;2732;52.092;11.556;2023-04-25T05:49:34;7.20;99.90
5419;DHT22;2732;52.092;11.556;2023-04-25T05:54:34;7.30;99.90
5419;DHT22;2732;52.092;11.556;2023-04-25T05:59:35;7.30;99.90
5419;DHT22;2732;52.092;11.556;2023-04-25T06:04:36;7.40;99.90
5419;DHT22;2732;52.092;11.556;2023-04-25T06:09:36;7.50;99.90
5419;DHT22;2732;52.092;11.556;2023-04-25T06:14:39;7.60;99.90
5419;DHT22;2732;52.092;11.556;2023-04-25T06:19:39;7.70;99.90
5419;DHT22;2732;52.092;11.556;2023-04-25T06:24:40;7.80;99.90
5419;DHT22;2732;52.092;11.556;2023-04-25T06:29:41;7.90;99.90
5419;DHT22;2732;52.092;11.556;2023-04-25T06:34:42;8.00;99.90
5419;DHT22;2732;52.092;11.556;2023-04-25T06:39:42;8.00;99.90
5419;DHT22;2732;52.092;11.556;2023-04-25T06:44:43;8.10;99.90
5419;DHT22;2732;52.092;11.556;2023-04-25T06:49:43;8.20;99.90
5419;DHT22;2732;52.092;11.556;2023-04-25T06:54:44;8.40;99.90
5419;DHT22;2732;52.092;11.556;2023-04-25T06:59:45;8.50;99.90
5419;DHT22;2732;52.092;11.556;2023-04-25T07:04:46;8.50;99.90
5419;DHT22;2732;52.092;11.556;2023-04-25T07:09:46;8.60;99.90
5419;DHT22;2732;52.092;11.556;2023-04-25T07:14:47;8.80;99.90
5419;DHT22;2732;52.092;11.556;2023-04-25T07:19:48;8.80;99.90
5419;DHT22;2732;52.092;11.556;2023-04-25T07:24:50;8.80;99.90
5419;DHT22;2732;52.092;11.556;2023-04-25T07:29:51;8.70;99.90
5419;DHT22;2732;52.092;11.556;2023-04-25T07:34:51;8.90;99.90
5419;DHT22;2732;52.092;11.556;2023-04-25T07:39:52;9.00;99.90
5419;DHT22;2732;52.092;11.556;2023-04-25T07:44:52;9.20;99.90
5419;DHT22;2732;52.092;11.556;2023-04-25T07:49:53;9.30;99.90
5419;DHT22;2732;52.092;11.556;2023-04-25T08:05:46;10.10;99.90
5419;DHT22;2732;52.092;11.556;2023-04-25T08:10:46;10.70;99.90
5419;DHT22;2732;52.092;11.556;2023-04-25T08:15:48;10.40;99.90
5419;DHT22;2732;52.092;11.556;2023-04-25T08:20:49;10.50;99.90
5419;DHT22;2732;52.092;11.556;2023-04-25T08:25:50;10.80;99.90
5419;DHT22;2732;52.092;11.556;2023-04-25T08:30:51;11.40;99.50
5419;DHT22;2732;52.092;11.556;2023-04-25T08:35:52;11.90;98.10
5419;DHT22;2732;52.092;11.556;2023-04-25T08:40:54;11.80;97.80
5419;DHT22;2732;52.092;11.556;2023-04-25T08:46:00;11.50;97.30
5419;DHT22;2732;52.092;11.556;2023-04-25T08:51:02;11.50;97.00
5419;DHT22;2732;52.092;11.556;2023-04-25T08:56:05;11.60;96.00
5419;DHT22;2732;52.092;11.556;2023-04-25T09:01:06;12.00;95.80
5419;DHT22;2732;52.092;11.556;2023-04-25T09:06:07;11.90;95.50
5419;DHT22;2732;52.092;11.556;2023-04-25T09:11:09;12.50;94.90
5419;DHT22;2732;52.092;11.556;2023-04-25T09:16:10;12.90;94.80
5419;DHT22;2732;52.092;11.556;2023-04-25T09:21:12;13.20;93.40
5419;DHT22;2732;52.092;11.556;2023-04-25T09:26:15;13.20;92.70
5419;DHT22;2732;52.092;11.556;2023-04-25T09:31:23;13.20;92.30
5419;DHT22;2732;52.092;11.556;2023-04-25T09:36:27;13.10;91.70
5419;DHT22;2732;52.092;11.556;2023-04-25T09:41:29;13.00;91.50
5419;DHT22;2732;52.092;11.556;2023-04-25T09:46:35;13.00;91.00
5419;DHT22;2732;52.092;11.556;2023-04-25T09:51:38;13.00;91.10
5419;DHT22;2732;52.092;11.556;2023-04-25T09:56:39;13.10;91.00
5419;DHT22;2732;52.092;11.556;2023-04-25T10:01:40;13.60;90.70
5419;DHT22;2732;52.092;11.556;2023-04-25T10:06:42;14.00;90.70
5419;DHT22;2732;52.092;11.556;2023-04-25T10:11:46;13.50;90.30
5419;DHT22;2732;52.092;11.556;2023-04-25T10:16:49;12.90;88.90
5419;DHT22;2732;52.092;11.556;2023-04-25T10:22:17;12.50;89.10
5419;DHT22;2732;52.092;11.556;2023-04-25T10:27:21;12.20;89.20
5419;DHT22;2732;52.092;11.556;2023-04-25T10:32:22;12.00;90.30
5419;DHT22;2732;52.092;11.556;2023-04-25T10:37:24;11.70;91.30
5419;DHT22;2732;52.092;11.556;2023-04-25T10:42:24;11.60;91.50
5419;DHT22;2732;52.092;11.556;2023-04-25T10:47:35;11.60;92.00
5419;DHT22;2732;52.092;11.556;2023-04-25T10:52:38;11.80;91.80
5419;DHT22;2732;52.092;11.556;2023-04-25T10:57:42;12.10;91.80
5419;DHT22;2732;52.092;11.556;2023-04-25T11:02:52;12.70;91.10
5419;DHT22;2732;52.092;11.556;2023-04-25T11:07:58;12.60;90.80
5419;DHT22;2732;52.092;11.556;2023-04-25T11:12:59;12.20;89.40
5419;DHT22;2732;52.092;11.556;2023-04-25T11:18:00;12.10;88.10
5419;DHT22;2732;52.092;11.556;2023-04-25T11:23:01;12.20;88.40
5419;DHT22;2732;52.092;11.556;2023-04-25T11:28:01;12.50;88.40
5419;DHT22;2732;52.092;11.556;2023-04-25T11:33:03;12.70;88.00
5419;DHT22;2732;52.092;11.556;2023-04-25T11:38:04;12.70;86.60
5419;DHT22;2732;52.092;11.556;2023-04-25T11:43:04;12.70;85.10
5419;DHT22;2732;52.092;11.556;2023-04-25T11:48:05;13.00;86.20
5419;DHT22;2732;52.092;11.556;2023-04-25T11:53:06;12.90;86.80
5419;DHT22;2732;52.092;11.556;2023-04-25T11:58:08;12.70;86.00
5419;DHT22;2732;52.092;11.556;2023-04-25T12:03:09;12.80;87.10
5419;DHT22;2732;52.092;11.556;2023-04-25T12:08:14;13.60;86.90
5419;DHT22;2732;52.092;11.556;2023-04-25T12:13:23;15.20;82.80
5419;DHT22;2732;52.092;11.556;2023-04-25T12:18:25;15.30;80.60
5419;DHT22;2732;52.092;11.556;2023-04-25T12:23:28;14.90;79.90
5419;DHT22;2732;52.092;11.556;2023-04-25T12:28:32;14.30;79.20
5419;DHT22;2732;52.092;11.556;2023-04-25T12:33:37;13.80;79.40
5419;DHT22;2732;52.092;11.556;2023-04-25T12:38:40;13.60;81.80
5419;DHT22;2732;52.092;11.556;2023-04-25T12:43:41;13.20;81.20
5419;DHT22;2732;52.092;11.556;2023-04-25T12:48:42;13.10;80.40
5419;DHT22;2732;52.092;11.556;2023-04-25T12:53:43;13.40;81.10
5419;DHT22;2732;52.092;11.556;2023-04-25T12:58:43;13.60;81.20
5419;DHT22;2732;52.092;11.556;2023-04-25T13:03:44;13.50;81.50
5419;DHT22;2732;52.092;11.556;2023-04-25T13:08:45;13.20;80.30
5419;DHT22;2732;52.092;11.556;2023-04-25T13:13:46;12.90;81.00
5419;DHT22;2732;52.092;11.556;2023-04-25T13:18:46;12.70;80.70
5419;DHT22;2732;52.092;11.556;2023-04-25T13:23:47;12.60;81.20
5419;DHT22;2732;52.092;11.556;2023-04-25T13:28:48;12.80;81.20
5419;DHT22;2732;52.092;11.556;2023-04-25T13:33:48;13.30;80.20
5419;DHT22;2732;52.092;11.556;2023-04-25T13:38:49;13.80;78.70
5419;DHT22;2732;52.092;11.556;2023-04-25T13:43:49;14.60;78.70
5419;DHT22;2732;52.092;11.556;2023-04-25T13:48:50;15.00;78.60
5419;DHT22;2732;52.092;11.556;2023-04-25T13:53:51;15.20;76.60
5419;DHT22;2732;52.092;11.556;2023-04-25T13:58:51;14.80;76.10
5419;DHT22;2732;52.092;11.556;2023-04-25T14:03:52;14.60;76.30
5419;DHT22;2732;52.092;11.556;2023-04-25T14:08:53;14.60;77.20
5419;DHT22;2732;52.092;11.556;2023-04-25T14:13:56;15.00;75.50
5419;DHT22;2732;52.092;11.556;2023-04-25T14:19:00;15.10;73.90
5419;DHT22;2732;52.092;11.556;2023-04-25T14:24:01;15.60;73.40
5419;DHT22;2732;52.092;11.556;2023-04-25T14:29:05;16.10;71.80
5419;DHT22;2732;52.092;11.556;2023-04-25T14:34:13;16.60;71.60
5419;DHT22;2732;52.092;11.556;2023-04-25T14:39:13;17.10;71.80
5419;DHT22;2732;52.092;11.556;2023-04-25T14:44:15;17.50;70.00
5419;DHT22;2732;52.092;11.556;2023-04-25T14:49:15;17.70;70.10
5419;DHT22;2732;52.092;11.556;2023-04-25T14:54:16;17.30;69.60
5419;DHT22;2732;52.092;11.556;2023-04-25T14:59:17;17.50;70.20
5419;DHT22;2732;52.092;11.556;2023-04-25T15:04:18;17.50;67.70
5419;DHT22;2732;52.092;11.556;2023-04-25T15:09:18;17.30;68.00
5419;DHT22;2732;52.092;11.556;2023-04-25T15:14:19;17.10;67.90
5419;DHT22;2732;52.092;11.556;2023-04-25T15:19:20;17.30;68.00
5419;DHT22;2732;52.092;11.556;2023-04-25T15:24:21;17.00;68.80
5419;DHT22;2732;52.092;11.556;2023-04-25T15:29:22;17.10;68.30
5419;DHT22;2732;52.092;11.556;2023-04-25T15:34:22;16.60;67.10
5419;DHT22;2732;52.092;11.556;2023-04-25T15:39:23;16.40;67.60
5419;DHT22;2732;52.092;11.556;2023-04-25T15:44:24;16.30;67.90
5419;DHT22;2732;52.092;11.556;2023-04-25T15:49:25;16.70;67.80
5419;DHT22;2732;52.092;11.556;2023-04-25T15:54:25;16.50;66.30
5419;DHT22;2732;52.092;11.556;2023-04-25T15:59:27;16.50;66.40
5419;DHT22;2732;52.092;11.556;2023-04-25T16:04:28;16.20;65.80
5419;DHT22;2732;52.092;11.556;2023-04-25T16:09:35;15.80;65.40
5419;DHT22;2732;52.092;11.556;2023-04-25T16:14:36;15.30;66.90
5419;DHT22;2732;52.092;11.556;2023-04-25T16:19:37;14.90;68.40
5419;DHT22;2732;52.092;11.556;2023-04-25T16:24:38;14.40;69.60
5419;DHT22;2732;52.092;11.556;2023-04-25T16:29:39;14.30;70.50
5419;DHT22;2732;52.092;11.556;2023-04-25T16:34:40;14.40;71.90
5419;DHT22;2732;52.092;11.556;2023-04-25T16:39:40;14.50;70.80
5419;DHT22;2732;52.092;11.556;2023-04-25T16:44:41;14.70;71.30
5419;DHT22;2732;52.092;11.556;2023-04-25T16:49:42;14.70;71.20
5419;DHT22;2732;52.092;11.556;2023-04-25T16:54:42;14.40;71.30
5419;DHT22;2732;52.092;11.556;2023-04-25T16:59:43;14.10;69.80
5419;DHT22;2732;52.092;11.556;2023-04-25T17:04:43;13.80;69.30
5419;DHT22;2732;52.092;11.556;2023-04-25T17:09:44;13.60;69.00
5419;DHT22;2732;52.092;11.556;2023-04-25T17:14:44;13.60;69.40
5419;DHT22;2732;52.092;11.556;2023-04-25T17:19:46;13.50;69.60
5419;DHT22;2732;52.092;11.556;2023-04-25T17:24:46;13.30;69.60
5419;DHT22;2732;52.092;11.556;2023-04-25T17:29:47;13.00;69.70
5419;DHT22;2732;52.092;11.556;2023-04-25T17:34:47;12.60;70.40
5419;DHT22;2732;52.092;11.556;2023-04-25T17:39:48;12.40;71.60
5419;DHT22;2732;52.092;11.556;2023-04-25T17:44:49;12.10;72.50
5419;DHT22;2732;52.092;11.556;2023-04-25T17:49:49;11.80;73.10
5419;DHT22;2732;52.092;11.556;2023-04-25T17:54:51;11.60;74.20
5419;DHT22;2732;52.092;11.556;2023-04-25T17:59:52;11.30;75.00
5419;DHT22;2732;52.092;11.556;2023-04-25T18:04:53;11.10;75.70
5419;DHT22;2732;52.092;11.556;2023-04-25T18:09:55;10.90;76.00
5419;DHT22;2732;52.092;11.556;2023-04-25T18:14:55;10.70;76.60
5419;DHT22;2732;52.092;11.556;2023-04-25T18:19:56;10.40;77.00
5419;DHT22;2732;52.092;11.556;2023-04-25T18:24:57;10.20;77.60
5419;DHT22;2732;52.092;11.556;2023-04-25T18:29:57;10.00;78.50
5419;DHT22;2732;52.092;11.556;2023-04-25T18:34:58;9.70;80.10
5419;DHT22;2732;52.092;11.556;2023-04-25T18:39:59;9.50;80.70
5419;DHT22;2732;52.092;11.556;2023-04-25T18:45:06;9.40;81.40
5419;DHT22;2732;52.092;11.556;2023-04-25T18:50:07;9.20;82.10
5419;DHT22;2732;52.092;11.556;2023-04-25T18:55:08;9.10;82.90
5419;DHT22;2732;52.092;11.556;2023-04-25T19:00:10;9.00;83.80
5419;DHT22;2732;52.092;11.556;2023-04-25T19:05:11;8.80;85.00
5419;DHT22;2732;52.092;11.556;2023-04-25T19:10:13;8.60;86.70
5419;DHT22;2732;52.092;11.556;2023-04-25T19:15:15;8.50;87.90
5419;DHT22;2732;52.092;11.556;2023-04-25T19:20:15;8.30;90.20
5419;DHT22;2732;52.092;11.556;2023-04-25T19:25:16;8.20;90.90
5419;DHT22;2732;52.092;11.556;2023-04-25T19:30:18;8.10;91.60
5419;DHT22;2732;52.092;11.556;2023-04-25T19:35:18;8.00;91.80
5419;DHT22;2732;52.092;11.556;2023-04-25T19:40:19;7.90;92.00
5419;DHT22;2732;52.092;11.556;2023-04-25T19:45:22;7.80;92.30
5419;DHT22;2732;52.092;11.556;2023-04-25T19:50:22;7.70;92.60
5419;DHT22;2732;52.092;11.556;2023-04-25T19:55:23;7.60;93.00
5419;DHT22;2732;52.092;11.556;2023-04-25T20:00:24;7.50;93.20
5419;DHT22;2732;52.092;11.556;2023-04-25T20:05:24;7.40;93.50
5419;DHT22;2732;52.092;11.556;2023-04-25T20:10:26;7.30;93.80
5419;DHT22;2732;52.092;11.556;2023-04-25T20:15:26;7.30;94.00
5419;DHT22;2732;52.092;11.556;2023-04-25T20:20:27;7.20;94.30
5419;DHT22;2732;52.092;11.556;2023-04-25T20:25:28;7.10;94.50
5419;DHT22;2732;52.092;11.556;2023-04-25T20:30:28;7.00;94.70
5419;DHT22;2732;52.092;11.556;2023-04-25T20:35:29;7.00;95.00
5419;DHT22;2732;52.092;11.556;2023-04-25T20:40:30;6.90;95.20
5419;DHT22;2732;52.092;11.556;2023-04-25T20:45:31;6.90;95.40
5419;DHT22;2732;52.092;11.556;2023-04-25T20:50:33;6.80;95.70
5419;DHT22;2732;52.092;11.556;2023-04-25T20:55:34;6.70;95.80
5419;DHT22;2732;52.092;11.556;2023-04-25T21:00:35;6.70;95.90
5419;DHT22;2732;52.092;11.556;2023-04-25T21:05:38;6.60;96.20
5419;DHT22;2732;52.092;11.556;2023-04-25T21:10:38;6.60;96.40
5419;DHT22;2732;52.092;11.556;2023-04-25T21:15:40;6.50;96.60
5419;DHT22;2732;52.092;11.556;2023-04-25T21:20:40;6.40;96.80
5419;DHT22;2732;52.092;11.556;2023-04-25T21:25:41;6.30;96.90
5419;DHT22;2732;52.092;11.556;2023-04-25T21:30:42;6.30;97.20
5419;DHT22;2732;52.092;11.556;2023-04-25T21:35:43;6.20;97.30
5419;DHT22;2732;52.092;11.556;2023-04-25T21:40:44;6.10;97.50
5419;DHT22;2732;52.092;11.556;2023-04-25T21:45:45;6.10;97.70
5419;DHT22;2732;52.092;11.556;2023-04-25T21:50:45;6.00;97.70
5419;DHT22;2732;52.092;11.556;2023-04-25T21:55:46;5.90;97.80
5419;DHT22;2732;52.092;11.556;2023-04-25T22:00:47;5.90;98.10
5419;DHT22;2732;52.092;11.556;2023-04-25T22:05:48;5.80;98.20
5419;DHT22;2732;52.092;11.556;2023-04-25T22:10:48;5.70;98.40
5419;DHT22;2732;52.092;11.556;2023-04-25T22:15:49;5.70;98.40
5419;DHT22;2732;52.092;11.556;2023-04-25T22:20:50;5.60;98.60
5419;DHT22;2732;52.092;11.556;2023-04-25T22:25:50;5.50;98.70
5419;DHT22;2732;52.092;11.556;2023-04-25T22:30:51;5.50;99.00
5419;DHT22;2732;52.092;11.556;2023-04-25T22:35:52;5.40;99.30
5419;DHT22;2732;52.092;11.556;2023-04-25T22:40:53;5.40;99.30
5419;DHT22;2732;52.092;11.556;2023-04-25T22:45:54;5.30;99.40
5419;DHT22;2732;52.092;11.556;2023-04-25T22:51:03;5.20;99.60
5419;DHT22;2732;52.092;11.556;2023-04-25T22:56:11;5.20;99.80
5419;DHT22;2732;52.092;11.556;2023-04-25T23:01:12;5.10;99.90
5419;DHT22;2732;52.092;11.556;2023-04-25T23:06:16;5.10;99.90
5419;DHT22;2732;52.092;11.556;2023-04-25T23:11:16;5.00;99.90
5419;DHT22;2732;52.092;11.556;2023-04-25T23:16:17;5.00;99.90
5419;DHT22;2732;52.092;11.556;2023-04-25T23:21:17;4.90;99.90
5419;DHT22;2732;52.092;11.556;2023-04-25T23:26:19;4.90;99.90
5419;DHT22;2732;52.092;11.556;2023-04-25T23:31:20;4.80;99.90
5419;DHT22;2732;52.092;11.556;2023-04-25T23:36:21;4.80;99.90
5419;DHT22;2732;52.092;11.556;2023-04-25T23:41:21;4.70;99.90
5419;DHT22;2732;52.092;11.556;2023-04-25T23:46:22;4.70;99.90
5419;DHT22;2732;52.092;11.556;2023-04-25T23:51:22;4.60;99.90
5419;DHT22;2732;52.092;11.556;2023-04-25T23:56:24;4.60;99.90
